createdAt,value
2016-08-01T12:51:04.300Z,30.21
2016-08-01T12:52:04.306Z,31.47
2016-08-01T12:53:04.311Z,30.98
2016-08-01T12:54:04.313Z,30.98
2016-08-01T12:55:04.318Z,30.98
2016-08-01T12:56:04.334Z,30.88
2016-08-01T12:57:04.344Z,30.86
2016-08-01T12:58:04.335Z,31.83
2016-08-01T12:59:04.345Z,32.99
2016-08-01T13:00:04.351Z,32.81
2016-08-01T13:01:04.355Z,30.98
2016-08-01T13:02:04.357Z,30.31
2016-08-01T13:03:05.079Z,30.02
2016-08-01T13:04:04.368Z,30.11
2016-08-01T13:05:04.372Z,29.46
2016-08-01T13:06:04.377Z,29.16
2016-08-01T13:07:04.397Z,29.84
2016-08-01T13:08:04.388Z,29.06
2016-08-01T13:09:04.393Z,29.55
2016-08-01T13:10:04.401Z,29.55
2016-08-01T13:11:04.405Z,29.36
2016-08-01T13:12:05.115Z,28.87
2016-08-01T13:13:04.423Z,28.49
2016-08-01T13:14:04.428Z,28.29
2016-08-01T13:15:04.426Z,28.87
2016-08-01T13:16:04.429Z,28.76
2016-08-01T13:17:04.436Z,28.96
2016-08-01T13:18:04.441Z,28.86
2016-08-01T13:19:04.448Z,28.96
2016-08-01T13:20:04.462Z,29.15
2016-08-01T13:21:04.457Z,29.05
2016-08-01T13:22:04.463Z,28.86
2016-08-01T13:23:04.464Z,28.96
2016-08-01T13:24:04.472Z,29.34
2016-08-01T13:25:04.478Z,28.97
2016-08-01T13:26:04.486Z,28.29
2016-08-01T13:27:04.487Z,28.29
2016-08-01T13:28:04.494Z,28.4
2016-08-01T13:29:04.496Z,28.3
2016-08-01T13:30:04.505Z,28.49
2016-08-01T13:31:04.509Z,28.39
2016-08-01T13:32:04.518Z,28.68
2016-08-01T13:33:04.519Z,28.58
2016-08-01T13:34:04.525Z,28.39
2016-08-01T13:35:04.531Z,28.39
2016-08-01T13:36:04.536Z,28.11
2016-08-01T13:37:04.545Z,28.3
2016-08-01T13:38:04.558Z,27.92
2016-08-01T13:39:04.560Z,27.04
2016-08-01T13:40:04.559Z,27.62
2016-08-01T13:41:04.563Z,27.92
2016-08-01T13:42:04.567Z,28.19
2016-08-01T13:43:04.575Z,28.49
2016-08-01T13:44:04.582Z,28.39
2016-08-01T13:45:04.598Z,29.15
2016-08-01T13:46:04.599Z,29.44
2016-08-01T13:47:04.599Z,29.44
2016-08-01T13:48:04.601Z,28.86
2016-08-01T13:49:04.610Z,28.76
2016-08-01T13:50:04.614Z,28.86
2016-08-01T13:51:04.630Z,29.16
2016-08-01T13:52:04.628Z,28.39
2016-08-01T13:53:04.629Z,28.58
2016-08-01T13:54:04.633Z,28.19
2016-08-01T13:55:04.658Z,28.68
2016-08-01T13:56:04.650Z,28.09
2016-08-01T13:57:04.663Z,28.39
2016-08-01T13:58:04.677Z,28.29
2016-08-01T13:59:04.678Z,28.47
2016-08-01T14:00:04.672Z,28.19
2016-08-01T14:01:04.675Z,28.09
2016-08-01T14:02:04.684Z,28.77
2016-08-01T14:03:04.703Z,28.39
2016-08-01T14:04:04.700Z,27.61
2016-08-01T14:05:04.698Z,27.62
2016-08-01T14:06:04.708Z,27.24
2016-08-01T14:07:04.726Z,27.14
2016-08-01T14:08:04.728Z,27.82
2016-08-01T14:09:04.726Z,27.04
2016-08-01T14:10:04.726Z,27.33
2016-08-01T14:11:04.739Z,26.75
2016-08-01T14:12:04.741Z,27.04
2016-08-01T14:13:04.756Z,27.62
2016-08-01T14:14:04.778Z,27.62
2016-08-01T14:15:04.762Z,27.24
2016-08-01T14:16:04.761Z,27.04
2016-08-01T14:17:04.772Z,27.03
2016-08-01T14:18:04.775Z,27.81
2016-08-01T14:19:04.783Z,27.61
2016-08-01T14:20:04.793Z,27.71
2016-08-01T14:21:04.796Z,27.71
2016-08-01T14:22:04.797Z,27.61
2016-08-01T14:23:04.801Z,27.71
2016-08-01T14:24:05.507Z,27.71
2016-08-01T14:25:04.820Z,27.61
2016-08-01T14:26:04.826Z,27.61
2016-08-01T14:27:04.832Z,28.29
2016-08-01T14:28:04.842Z,28.39
2016-08-01T14:29:04.829Z,29.16
2016-08-01T14:30:04.844Z,28.87
2016-08-01T14:31:04.844Z,28.49
2016-08-01T14:32:04.849Z,28.68
2016-08-01T14:33:04.856Z,28.5
2016-08-01T14:34:04.861Z,28.4
2016-08-01T14:35:04.859Z,28.11
2016-08-01T14:36:04.868Z,27.53
2016-08-01T14:37:04.868Z,27.83
2016-08-01T14:38:04.883Z,28.02
2016-08-01T14:39:04.883Z,28.5
2016-08-01T14:40:04.894Z,28.11
2016-08-01T14:41:04.947Z,28.4
2016-08-01T14:42:04.947Z,28.3
2016-08-01T14:43:04.907Z,28.97
2016-08-01T14:44:04.909Z,29.06
2016-08-01T14:45:04.916Z,28.97
2016-08-01T14:46:04.927Z,28.97
2016-08-01T14:47:04.929Z,28.2
2016-08-01T14:48:04.936Z,27.82
2016-08-01T14:49:04.938Z,27.92
2016-08-01T14:50:04.940Z,28.11
2016-08-01T14:51:04.957Z,28.2
2016-08-01T14:52:04.959Z,28.59
2016-08-01T14:53:04.960Z,28.2
2016-08-01T14:54:04.964Z,28.59
2016-08-01T14:55:04.969Z,28.59
2016-08-01T14:56:04.992Z,30.63
2016-08-01T14:57:04.984Z,31.12
2016-08-01T14:58:04.988Z,28.98
2016-08-01T14:59:04.991Z,29.57
2016-08-01T15:00:05.704Z,28.5
2016-08-01T15:01:05.005Z,28.98
2016-08-01T15:02:05.008Z,29.26
2016-08-01T15:03:05.011Z,29.46
2016-08-01T15:04:05.022Z,29.34
2016-08-01T15:05:05.025Z,29.83
2016-08-01T15:06:05.029Z,29.73
2016-08-01T15:07:05.040Z,30.02
2016-08-01T15:08:05.042Z,30.2
2016-08-01T15:09:05.043Z,30.58
2016-08-01T15:10:05.772Z,30.58
2016-08-01T15:11:05.057Z,31.34
2016-08-01T15:12:05.062Z,31.83
2016-08-01T15:13:05.065Z,31.54
2016-08-01T15:14:05.070Z,32.12
2016-08-01T15:15:05.078Z,31.63
2016-08-01T15:16:05.081Z,31.73
2016-08-01T15:17:05.116Z,31.05
2016-08-01T15:18:05.123Z,30.88
2016-08-01T15:19:05.096Z,30.78
2016-08-01T15:20:05.100Z,30.88
2016-08-01T15:21:05.103Z,30.68
2016-08-01T15:22:05.834Z,31.07
2016-08-01T15:23:05.131Z,30.2
2016-08-01T15:24:05.130Z,30.31
2016-08-01T15:25:05.129Z,30.02
2016-08-01T15:26:05.138Z,30.41
2016-08-01T15:27:05.141Z,29.92
2016-08-01T15:28:05.141Z,29.83
2016-08-01T15:29:05.144Z,29.92
2016-08-01T15:30:05.153Z,30.6
2016-08-01T15:31:05.155Z,30.21
2016-08-01T15:32:05.166Z,28.96
2016-08-01T15:33:05.175Z,29.24
2016-08-01T15:34:05.174Z,29.15
2016-08-01T15:35:05.175Z,29.63
2016-08-01T15:36:05.191Z,29.53
2016-08-01T15:37:05.191Z,28.87
2016-08-01T15:38:05.197Z,29.16
2016-08-01T15:39:05.212Z,28.97
2016-08-01T15:40:05.215Z,28.87
2016-08-01T15:41:05.210Z,27.91
2016-08-01T15:42:05.213Z,28
2016-08-01T15:43:05.220Z,28
2016-08-01T15:44:05.222Z,28.29
2016-08-01T15:45:05.226Z,28.29
2016-08-01T15:46:05.234Z,28.49
2016-08-01T15:47:05.240Z,28.47
2016-08-01T15:48:05.240Z,28.86
2016-08-01T15:49:05.246Z,29.92
2016-08-01T15:50:05.253Z,29.34
2016-08-01T15:51:05.256Z,28.96
2016-08-01T15:52:05.966Z,29.15
2016-08-01T15:53:05.272Z,29.61
2016-08-01T15:54:05.278Z,29.44
2016-08-01T15:55:05.281Z,28.86
2016-08-01T15:56:05.279Z,28.96
2016-08-01T15:57:06.001Z,28.86
2016-08-01T15:58:05.290Z,28.96
2016-08-01T15:59:05.307Z,30.11
2016-08-01T16:00:05.309Z,30.49
2016-08-01T16:01:05.311Z,29.61
2016-08-01T16:02:05.318Z,29.23
2016-08-01T16:03:05.314Z,29.15
2016-08-01T16:04:05.320Z,29.34
2016-08-01T16:05:05.326Z,28.55
2016-08-01T16:06:05.344Z,28.47
2016-08-01T16:07:05.336Z,28.28
2016-08-01T16:08:05.340Z,28.28
2016-08-01T16:09:05.345Z,27.6
2016-08-01T16:10:05.351Z,27.6
2016-08-01T16:11:05.359Z,27.11
2016-08-01T16:12:05.359Z,26.93
2016-08-01T16:13:05.365Z,27.13
2016-08-01T16:14:05.370Z,27.03
2016-08-01T16:15:05.373Z,26.93
2016-08-01T16:16:05.384Z,26.93
2016-08-01T16:17:05.385Z,26.16
2016-08-01T16:18:05.392Z,26.26
2016-08-01T16:19:06.101Z,26.05
2016-08-01T16:20:05.400Z,26.25
2016-08-01T16:21:05.411Z,26.25
2016-08-01T16:22:05.407Z,26.05
2016-08-01T16:23:05.414Z,25.95
2016-08-01T16:24:05.419Z,27.01
2016-08-01T16:25:05.422Z,26.45
2016-08-01T16:26:05.437Z,26.84
2016-08-01T16:27:05.433Z,27.51
2016-08-01T16:28:05.448Z,27.81
2016-08-01T16:29:05.451Z,25.67
2016-08-01T16:30:05.452Z,26.16
2016-08-01T16:31:05.454Z,26.16
2016-08-01T16:32:05.457Z,25.58
2016-08-01T16:33:05.464Z,25.58
2016-08-01T16:34:05.469Z,25.48
2016-08-01T16:35:05.475Z,25.96
2016-08-01T16:36:05.479Z,25.58
2016-08-01T16:37:05.485Z,26.16
2016-08-01T16:38:05.491Z,25.67
2016-08-01T16:39:05.495Z,25.58
2016-08-01T16:40:05.501Z,25.87
2016-08-01T16:41:05.514Z,25.96
2016-08-01T16:42:05.516Z,26.35
2016-08-01T16:43:05.514Z,26.45
2016-08-01T16:44:05.520Z,26.05
2016-08-01T16:45:05.522Z,26.25
2016-08-01T16:46:05.537Z,26.25
2016-08-01T16:47:05.542Z,26.63
2016-08-01T16:48:05.540Z,26.15
2016-08-01T16:49:05.544Z,26.43
2016-08-01T16:50:05.547Z,26.82
2016-08-01T16:51:05.555Z,26.63
2016-08-01T16:52:05.558Z,26.82
2016-08-01T16:53:05.563Z,27.6
2016-08-01T16:54:05.568Z,27.6
2016-08-01T16:55:05.574Z,27.2
2016-08-01T16:56:05.598Z,26.72
2016-08-01T16:57:05.601Z,26.72
2016-08-01T16:58:05.604Z,27
2016-08-01T16:59:05.604Z,27.2
2016-08-01T17:00:05.609Z,27
2016-08-01T17:01:05.605Z,26.42
2016-08-01T17:02:05.606Z,26.81
2016-08-01T17:03:05.615Z,26.61
2016-08-01T17:04:05.617Z,26.7
2016-08-01T17:05:05.621Z,26.9
2016-08-01T17:06:05.629Z,26.79
2016-08-01T17:07:05.632Z,27.68
2016-08-01T17:08:05.632Z,27.68
2016-08-01T17:09:05.639Z,27.1
2016-08-01T17:10:05.652Z,26.52
2016-08-01T17:11:05.653Z,26.72
2016-08-01T17:12:05.665Z,27.39
2016-08-01T17:13:05.659Z,27.68
2016-08-01T17:14:05.662Z,28.17
2016-08-01T17:15:05.672Z,28.36
2016-08-01T17:16:05.676Z,28.85
2016-08-01T17:17:05.692Z,28.36
2016-08-01T17:18:05.689Z,28.36
2016-08-01T17:19:05.692Z,28.92
2016-08-01T17:20:05.696Z,28.83
2016-08-01T17:21:05.695Z,29.02
2016-08-01T17:22:05.699Z,29.32
2016-08-01T17:23:05.701Z,29.5
2016-08-01T17:24:05.709Z,29.7
2016-08-01T17:25:05.714Z,30.08
2016-08-01T17:26:05.717Z,29.41
2016-08-01T17:27:05.720Z,29.41
2016-08-01T17:28:05.725Z,29.6
2016-08-01T17:29:05.730Z,29.32
2016-08-01T17:30:05.735Z,29.5
2016-08-01T17:31:05.737Z,29.32
2016-08-01T17:32:05.744Z,29.02
2016-08-01T17:33:05.757Z,29.02
2016-08-01T17:34:05.765Z,29.01
2016-08-01T17:35:05.765Z,29.41
2016-08-01T17:36:05.763Z,28.83
2016-08-01T17:37:05.758Z,29.1
2016-08-01T17:38:05.773Z,28.91
2016-08-01T17:39:05.773Z,29.41
2016-08-01T17:40:06.491Z,29.39
2016-08-01T17:41:05.786Z,29.1
2016-08-01T17:42:05.799Z,28.81
2016-08-01T17:43:05.804Z,28.72
2016-08-01T17:44:05.795Z,28.81
2016-08-01T17:45:05.798Z,29.01
2016-08-01T17:46:05.807Z,28.91
2016-08-01T17:47:05.806Z,28.72
2016-08-01T17:48:06.521Z,28.72
2016-08-01T17:49:05.823Z,29.1
2016-08-01T17:50:05.823Z,28.91
2016-08-01T17:51:05.845Z,29.38
2016-08-01T17:53:05.847Z,29.49
2016-08-01T17:54:05.843Z,29.38
2016-08-01T17:55:05.857Z,29.69
2016-08-01T17:56:05.862Z,29.78
2016-08-01T17:57:05.860Z,30.15
2016-08-01T17:58:05.870Z,29.96
2016-08-01T17:59:05.863Z,30.25
2016-08-01T18:00:05.870Z,30.25
2016-08-01T18:01:05.874Z,30.05
2016-08-01T18:02:05.874Z,30.17
2016-08-01T18:03:05.902Z,33.54
2016-08-01T18:04:05.889Z,31.52
2016-08-01T18:05:05.888Z,31.7
2016-08-01T18:06:05.914Z,31.02
2016-08-01T18:07:05.928Z,31.02
2016-08-01T18:08:05.917Z,30.63
2016-08-01T18:09:05.928Z,30.93
2016-08-01T18:10:05.928Z,30.83
2016-08-01T18:11:05.937Z,31.02
2016-08-01T18:12:05.938Z,30.93
2016-08-01T18:13:05.927Z,32.18
2016-08-01T18:14:05.925Z,33.15
2016-08-01T18:15:05.934Z,33.05
2016-08-01T18:16:05.952Z,33.05
2016-08-01T18:17:05.961Z,33.05
2016-08-01T18:18:05.961Z,31.88
2016-08-01T18:19:05.956Z,32.07
2016-08-01T18:20:05.951Z,32.07
2016-08-01T18:21:05.958Z,32.07
2016-08-01T18:22:05.963Z,32.07
2016-08-01T18:23:05.975Z,33.72
2016-08-01T18:24:05.972Z,33.33
2016-08-01T18:25:05.993Z,33.81
2016-08-01T18:26:05.984Z,33.52
2016-08-01T18:27:06.002Z,33.81
2016-08-01T18:28:05.994Z,35.26
2016-08-01T18:29:05.983Z,35.26
2016-08-01T18:30:06.007Z,36.03
2016-08-01T18:31:06.010Z,36.11
2016-08-01T18:32:06.004Z,36.5
2016-08-01T18:33:06.019Z,36.79
2016-08-01T18:34:06.029Z,36.5
2016-08-01T18:35:06.012Z,36.69
2016-08-01T18:36:06.013Z,35.8
2016-08-01T18:37:06.028Z,36.3
2016-08-01T18:38:06.033Z,37.15
2016-08-01T18:39:06.023Z,36.67
2016-08-01T18:40:06.038Z,37.25
2016-08-01T18:41:06.036Z,37.93
2016-08-01T18:42:06.038Z,38.7
2016-08-01T18:43:06.058Z,39.57
2016-08-01T18:44:06.058Z,38.99
2016-08-01T18:45:06.077Z,39.47
2016-08-01T18:46:06.082Z,39.57
2016-08-01T18:47:06.077Z,38.78
2016-08-01T18:48:06.077Z,38.68
2016-08-01T18:49:06.076Z,38.87
2016-08-01T18:50:06.078Z,39.06
2016-08-01T18:51:06.077Z,39.64
2016-08-01T18:52:06.083Z,39.36
2016-08-01T18:53:06.087Z,39.36
2016-08-01T18:54:06.078Z,39.26
2016-08-01T18:55:06.103Z,40.03
2016-08-01T18:56:06.102Z,39.84
2016-08-01T18:57:06.086Z,39.45
2016-08-01T18:58:06.123Z,39.54
2016-08-01T18:59:06.104Z,40.9
2016-08-01T19:00:06.116Z,41.28
2016-08-01T19:01:06.116Z,41.77
2016-08-01T19:02:06.118Z,41.75
2016-08-01T19:03:06.117Z,41.94
2016-08-01T19:04:06.150Z,42.03
2016-08-01T19:05:06.127Z,42.32
2016-08-01T19:06:06.151Z,42.61
2016-08-01T19:07:06.155Z,42.8
2016-08-01T19:08:06.163Z,42.52
2016-08-01T19:09:06.154Z,42.61
2016-08-01T19:10:06.151Z,42.9
2016-08-01T19:11:06.167Z,42.9
2016-08-01T19:12:06.154Z,42.88
2016-08-01T19:13:06.158Z,42.88
2016-08-01T19:14:06.165Z,43.55
2016-08-01T19:15:06.164Z,43.75
2016-08-01T19:16:06.167Z,43.85
2016-08-01T19:17:06.166Z,44.71
2016-08-01T19:18:06.163Z,44.81
2016-08-01T19:19:06.181Z,44.71
2016-08-01T19:20:06.175Z,44.9
2016-08-01T19:21:06.186Z,44.9
2016-08-01T19:22:06.178Z,44.42
2016-08-01T19:23:06.181Z,44.04
2016-08-01T19:24:06.181Z,44.21
2016-08-01T19:25:06.194Z,44.42
2016-08-01T19:26:06.191Z,44.59
2016-08-01T19:27:06.197Z,45.46
2016-08-01T19:28:06.193Z,46.14
2016-08-01T19:29:06.211Z,45.75
2016-08-01T19:30:06.225Z,46.33
2016-08-01T19:31:06.198Z,45.75
2016-08-01T19:32:06.242Z,45.75
2016-08-01T19:33:06.222Z,45.46
2016-08-01T19:34:06.224Z,45.56
2016-08-01T19:35:06.228Z,45.17
2016-08-01T19:36:06.225Z,45.36
2016-08-01T19:37:06.226Z,45.27
2016-08-01T19:38:06.938Z,45.46
2016-08-01T19:39:06.237Z,45.17
2016-08-01T19:40:06.245Z,45.56
2016-08-01T19:41:06.239Z,45.07
2016-08-01T19:42:06.240Z,45.56
2016-08-01T19:43:06.244Z,45.46
2016-08-01T19:44:06.239Z,45.75
2016-08-01T19:45:06.248Z,46.11
2016-08-01T19:46:06.957Z,46.4
2016-08-01T19:47:06.254Z,46.01
2016-08-01T19:48:06.254Z,46.59
2016-08-01T19:49:06.263Z,46.5
2016-08-01T19:50:06.268Z,46.59
2016-08-01T19:51:06.264Z,46.59
2016-08-01T19:52:06.976Z,47.08
2016-08-01T19:53:06.272Z,47.27
2016-08-01T19:54:06.983Z,47.46
2016-08-01T19:55:06.295Z,47.27
2016-08-01T19:56:06.285Z,47.85
2016-08-01T19:57:07.001Z,47.94
2016-08-01T19:58:06.295Z,47.94
2016-08-01T19:59:06.297Z,47.85
2016-08-01T20:00:06.313Z,47.85
2016-08-01T20:01:06.295Z,48.13
2016-08-01T20:02:06.297Z,47.75
2016-08-01T20:03:06.302Z,48.33
2016-08-01T20:04:06.305Z,48.71
2016-08-01T20:05:07.018Z,48.52
2016-08-01T20:06:06.310Z,48.4
2016-08-01T20:07:06.314Z,49.19
2016-08-01T20:08:06.317Z,49.19
2016-08-01T20:09:06.323Z,49.36
2016-08-01T20:10:06.331Z,48.97
2016-08-01T20:11:06.326Z,49.55
2016-08-01T20:12:06.327Z,49.55
2016-08-01T20:13:06.330Z,50.04
2016-08-01T20:14:06.343Z,50.04
2016-08-01T20:15:06.351Z,50.51
2016-08-01T20:16:06.344Z,50.42
2016-08-01T20:17:06.361Z,50.32
2016-08-01T20:18:06.362Z,50.51
2016-08-01T20:19:06.360Z,50.71
2016-08-01T20:20:06.364Z,50.61
2016-08-01T20:21:06.364Z,50.71
2016-08-01T20:22:06.362Z,51.29
2016-08-01T20:23:06.366Z,50.61
2016-08-01T20:24:06.368Z,51.29
2016-08-01T20:25:06.371Z,51.19
2016-08-01T20:26:06.377Z,51.19
2016-08-01T20:27:06.375Z,50.99
2016-08-01T20:28:06.379Z,51.19
2016-08-01T20:29:06.375Z,51.29
2016-08-01T20:30:06.379Z,51.38
2016-08-01T20:31:06.383Z,51.48
2016-08-01T20:32:06.387Z,51.48
2016-08-01T20:33:06.393Z,52.03
2016-08-01T20:34:06.394Z,52.51
2016-08-01T20:35:06.394Z,52.42
2016-08-01T20:36:06.404Z,52.42
2016-08-01T20:37:06.401Z,52.61
2016-08-01T20:38:06.418Z,52.89
2016-08-01T20:39:06.409Z,52.8
2016-08-01T20:40:06.419Z,52.8
2016-08-01T20:41:06.419Z,52.7
2016-08-01T20:42:06.438Z,53.28
2016-08-01T20:43:06.433Z,53.38
2016-08-01T20:44:06.426Z,53.57
2016-08-01T20:45:06.422Z,53.19
2016-08-01T20:46:06.437Z,53.66
2016-08-01T20:47:06.436Z,53.38
2016-08-01T20:48:06.435Z,53.74
2016-08-01T20:49:06.435Z,53.83
2016-08-01T20:50:06.439Z,53.92
2016-08-01T20:51:06.442Z,54.02
2016-08-01T20:52:06.444Z,54.12
2016-08-01T20:53:06.444Z,54.12
2016-08-01T20:54:06.448Z,54.6
2016-08-01T20:55:06.450Z,54.5
2016-08-01T20:56:06.455Z,54.69
2016-08-01T20:57:06.457Z,54.31
2016-08-01T20:58:06.458Z,54.99
2016-08-01T20:59:06.460Z,55.18
2016-08-01T21:00:07.169Z,54.79
2016-08-01T21:01:06.490Z,55.34
2016-08-01T21:02:06.472Z,54.79
2016-08-01T21:03:06.473Z,55.05
2016-08-01T21:04:06.472Z,55.37
2016-08-01T21:05:06.485Z,55.34
2016-08-01T21:06:06.488Z,55.15
2016-08-01T21:07:06.486Z,54.96
2016-08-01T21:08:06.490Z,55.46
2016-08-01T21:09:06.488Z,55.56
2016-08-01T21:10:06.490Z,55.53
2016-08-01T21:11:06.505Z,55.73
2016-08-01T21:12:06.503Z,55.63
2016-08-01T21:13:06.503Z,55.91
2016-08-01T21:14:06.507Z,56.04
2016-08-01T21:15:06.505Z,56.11
2016-08-01T21:16:06.508Z,55.94
2016-08-01T21:17:06.512Z,55.76
2016-08-01T21:18:06.508Z,55.76
2016-08-01T21:19:06.511Z,55.66
2016-08-01T21:20:06.520Z,55.94
2016-08-01T21:21:06.517Z,55.73
2016-08-01T21:22:06.519Z,55.82
2016-08-01T21:23:06.520Z,55.56
2016-08-01T21:24:06.523Z,55.53
2016-08-01T21:25:06.527Z,55.08
2016-08-01T21:26:06.537Z,55.27
2016-08-01T21:27:06.530Z,54.86
2016-08-01T21:28:06.533Z,54.89
2016-08-01T21:29:06.539Z,55.27
2016-08-01T21:30:06.544Z,55.63
2016-08-01T21:31:06.541Z,55.66
2016-08-01T21:32:06.543Z,55.44
2016-08-01T21:33:06.543Z,55.82
2016-08-01T21:34:06.549Z,55.91
2016-08-01T21:35:06.549Z,55.63
2016-08-01T21:36:06.563Z,55.66
2016-08-01T21:37:06.557Z,55.76
2016-08-01T21:38:06.570Z,55.63
2016-08-01T21:39:06.561Z,55.73
2016-08-01T21:40:06.564Z,55.73
2016-08-01T21:41:06.564Z,56.11
2016-08-01T21:42:06.565Z,55.76
2016-08-01T21:43:06.580Z,55.85
2016-08-01T21:44:06.571Z,55.76
2016-08-01T21:45:06.578Z,55.63
2016-08-01T21:46:06.580Z,55.85
2016-08-01T21:47:06.578Z,55.66
2016-08-01T21:48:06.585Z,55.56
2016-08-01T21:49:06.581Z,56.33
2016-08-01T21:50:07.290Z,56.23
2016-08-01T21:51:06.586Z,56.33
2016-08-01T21:52:06.589Z,56.43
2016-08-01T21:54:06.606Z,56.71
2016-08-01T21:55:06.618Z,57
2016-08-01T21:56:06.601Z,57.29
2016-08-01T21:57:06.602Z,57.48
2016-08-01T21:58:06.605Z,57.1
2016-08-01T21:59:06.606Z,57.17
2016-08-01T22:00:06.609Z,57.36
2016-08-01T22:01:06.612Z,57.39
2016-08-01T22:02:06.614Z,57.29
2016-08-01T22:03:06.635Z,57.93
2016-08-01T22:04:07.327Z,57.84
2016-08-01T22:05:06.621Z,58.15
2016-08-01T22:06:06.625Z,57.84
2016-08-01T22:07:06.627Z,58.06
2016-08-01T22:09:06.634Z,58.03
2016-08-01T22:10:06.636Z,58.06
2016-08-01T22:11:06.637Z,58.13
2016-08-01T22:12:06.637Z,58.61
2016-08-01T22:13:06.648Z,59.12
2016-08-01T22:14:06.648Z,59.28
2016-08-01T22:15:06.651Z,60.08
2016-08-01T22:16:06.649Z,60.43
2016-08-01T22:17:06.652Z,60.63
2016-08-01T22:18:07.366Z,60.72
2016-08-01T22:19:06.667Z,60.63
2016-08-01T22:20:06.666Z,60.53
2016-08-01T22:21:06.664Z,60.72
2016-08-01T22:22:06.660Z,60.63
2016-08-01T22:23:06.666Z,61.01
2016-08-01T22:24:06.663Z,61.11
2016-08-01T22:25:06.667Z,60.91
2016-08-01T22:26:06.668Z,61.3
2016-08-01T22:27:06.670Z,61.49
2016-08-01T22:28:07.854Z,62.07
2016-08-01T22:29:06.684Z,62.16
2016-08-01T22:30:07.390Z,61.97
2016-08-01T22:31:06.683Z,62.74
2016-08-01T22:32:06.682Z,62.93
2016-08-01T22:33:06.684Z,62.93
2016-08-01T22:34:06.689Z,62.74
2016-08-01T22:35:06.687Z,63.02
2016-08-01T22:36:06.692Z,63.32
2016-08-01T22:37:06.692Z,63.02
2016-08-01T22:38:06.695Z,62.93
2016-08-01T22:39:06.696Z,63.12
2016-08-01T22:40:06.698Z,62.74
2016-08-01T22:41:06.703Z,63.12
2016-08-01T22:42:06.706Z,62.64
2016-08-01T22:43:06.705Z,62.64
2016-08-01T22:44:06.709Z,62.74
2016-08-01T22:45:06.719Z,62.64
2016-08-01T22:46:06.718Z,62.55
2016-08-01T22:47:06.728Z,62.84
2016-08-01T22:48:06.718Z,62.74
2016-08-01T22:49:06.725Z,62.74
2016-08-01T22:50:06.722Z,63.12
2016-08-01T22:51:06.730Z,63.32
2016-08-01T22:52:06.737Z,63.12
2016-08-01T22:53:06.729Z,63.51
2016-08-01T22:54:07.440Z,63.51
2016-08-01T22:55:06.736Z,63.41
2016-08-01T22:56:06.742Z,63.79
2016-08-01T22:57:06.742Z,63.7
2016-08-01T22:58:06.741Z,63.99
2016-08-01T22:59:06.769Z,64.05
2016-08-01T23:00:07.454Z,63.96
2016-08-01T23:01:06.747Z,64.56
2016-08-01T23:02:06.755Z,64.53
2016-08-01T23:03:06.787Z,64.56
2016-08-01T23:04:06.757Z,64.85
2016-08-01T23:05:06.755Z,64.63
2016-08-01T23:06:06.762Z,64.18
2016-08-01T23:07:06.767Z,64.09
2016-08-01T23:08:06.764Z,64.09
2016-08-01T23:09:06.765Z,63.89
2016-08-01T23:10:06.767Z,63.51
2016-08-01T23:11:06.781Z,63.51
2016-08-01T23:12:06.773Z,63.41
2016-08-01T23:13:06.775Z,63.51
2016-08-01T23:14:06.788Z,63.7
2016-08-01T23:15:06.779Z,63.99
2016-08-01T23:16:06.783Z,63.99
2016-08-01T23:17:06.972Z,64.09
2016-08-01T23:18:06.851Z,64.76
2016-08-01T23:19:06.788Z,64.66
2016-08-01T23:20:06.791Z,65.05
2016-08-01T23:21:06.791Z,65.23
2016-08-01T23:22:06.801Z,65.23
2016-08-01T23:23:06.798Z,65.69
2016-08-01T23:24:06.801Z,65.91
2016-08-01T23:25:06.803Z,65.72
2016-08-01T23:26:06.802Z,65.72
2016-08-01T23:27:06.805Z,65.69
2016-08-01T23:28:06.807Z,65.62
2016-08-01T23:29:06.811Z,65.97
2016-08-01T23:30:06.812Z,65.97
2016-08-01T23:31:06.821Z,66.26
2016-08-01T23:32:06.817Z,66.16
2016-08-01T23:33:06.821Z,66.64
2016-08-01T23:34:06.821Z,66.46
2016-08-01T23:35:06.825Z,66.46
2016-08-01T23:36:06.826Z,66.64
2016-08-01T23:37:06.848Z,66.93
2016-08-01T23:38:06.832Z,67.03
2016-08-01T23:39:06.835Z,66.93
2016-08-01T23:40:06.834Z,67.22
2016-08-01T23:41:06.836Z,67.13
2016-08-01T23:42:06.847Z,67.51
2016-08-01T23:43:06.845Z,67.9
2016-08-01T23:44:06.849Z,67.99
2016-08-01T23:45:06.848Z,67.8
2016-08-01T23:46:06.856Z,67.8
2016-08-01T23:47:06.854Z,68.47
2016-08-01T23:48:06.854Z,68.37
2016-08-01T23:49:06.853Z,68.85
2016-08-01T23:50:06.861Z,68.47
2016-08-01T23:51:07.012Z,68.73
2016-08-01T23:52:06.871Z,68.53
2016-08-01T23:53:06.863Z,69.34
2016-08-01T23:54:06.867Z,69.11
2016-08-01T23:55:06.868Z,68.91
2016-08-01T23:56:06.868Z,69.01
2016-08-01T23:57:06.871Z,69.2
2016-08-01T23:58:06.874Z,69.2
2016-08-01T23:59:06.882Z,69.01
